Hlavní strana
METAR-TAF:

METAR-TAF

Letiště :

Ventspils, Lotyšsko

zeměpisná šířka: 57-21-28N, zeměpisná délka: 021-32-39E, výška: 6 m

Aktuální stav počasí

Zpráva byla vytvořena před 25 minutami, v 00:50 UTC
Jihojihovýchodní vítr 3 kt
Teplota 12°C
Vlhkost vzduchu 94%
Tlak 1012 hPa
Viditelnost: 4800 m
Zataženo ve výšce 300 ft
kouřmo

METAR: EVVA 180050Z AUTO 15003KT 4800 BR OVC003 12/11 Q1012

Čas: 04:15 (01:15 UTC)


TAF: chybějící

Stav a předpovědi počasí z více než 4 000 letišť (zprávy METAR a TAF).

Červené a žluté tečky na mapě představují dostupné meteorologické stanice.

Když kurzor umístíte na tečku, zobrazí se název stanice.

Pak kliknutím zobrazíte stav a předpověď počasí.

Chcete-li změnit mapu, kliknutím na zelené tlačítko se znaménkem +mapu přiblížíte, kliknutím na zelené tlačítko se znaménkem – mapu oddálíte a kliknutím na zelené šipky přejdete na sousední mapy.


METAR-TAF: